WetterOnline ( https://www.wetteronline.de )

Wetter aktuell Lulea

Aktuelles Wetter: Lulea (17m)

6-stündlich | Neueste Meldungen
Ortszeit Temperatur Wetter
Mi, 16.10. 2:00 -3.5° C Nebel
Di, 15.10. 20:00 0.7° C bedeckt
Di, 15.10. 14:00 0.5° C fast wolkenlos
Di, 15.10. 8:00 -6.6° C wolkenlos
Di, 15.10. 2:00 -5.6° C wolkenlos
Mo, 14.10. 20:00 -1.7° C wolkenlos
Mo, 14.10. 14:00 2.3° C fast wolkenlos
Mo, 14.10. 8:00 -2.3° C wolkig
Ortszeit Temperatur Wetter
Mi, 16.10. 6:20 -5° C bewölkt
Mi, 16.10. 6:00 -4.6° C bewölkt
Mi, 16.10. 5:50 -5° C bewölkt
Mi, 16.10. 5:21 -4° C bedeckt
Mi, 16.10. 5:00 -4.1° C bedeckt
Mi, 16.10. 4:50 -4° C -
Mi, 16.10. 4:20 -3° C Nebel mit Raueis
Mi, 16.10. 4:00 -3.3° C Nebel
Mi, 16.10. 3:20 -4° C bedeckt
Mi, 16.10. 3:00 -3.5° C Nebel
Ortszeit Relative Feuchte Sichtweite
Mi, 16.10. 2:00 97% 0.3 km
Di, 15.10. 20:00 95% 11 km
Di, 15.10. 14:00 80% 60 km
Di, 15.10. 8:00 93% >70 km
Di, 15.10. 2:00 94% 45 km
Mo, 14.10. 20:00 82% 50 km
Mo, 14.10. 14:00 72% >70 km
Mo, 14.10. 8:00 91% >70 km
Ortszeit Relative Feuchte Sichtweite
Mi, 16.10. 6:20 100% 2.0 km
Mi, 16.10. 6:00 96% 2.0 km
Mi, 16.10. 5:50 100% 1.6 km
Mi, 16.10. 5:21 93% 2.6 km
Mi, 16.10. 5:00 96% 3.2 km
Mi, 16.10. 4:50 100% 1.3 km
Mi, 16.10. 4:20 93% 0.7 km
Mi, 16.10. 4:00 97% 0.9 km
Mi, 16.10. 3:20 100% 2.6 km
Mi, 16.10. 3:00 96% 2.9 km
Ortszeit Niederschlagsmenge Niederschlagsart
Mi, 16.10. 2:00 0.0 l/m2 in 6 Std. -
Di, 15.10. 20:00 0.0 l/m2 in 12 Std. -
Di, 15.10. 14:00 0.0 l/m2 in 6 Std. -
Di, 15.10. 8:00 0.0 l/m2 in 12 Std. -
Di, 15.10. 2:00 0.0 l/m2 in 6 Std. -
Mo, 14.10. 20:00 0.0 l/m2 in 12 Std. -
Mo, 14.10. 14:00 0.0 l/m2 -
Mo, 14.10. 8:00 0.0 l/m2 in 12 Std. -
Ortszeit Niederschlagsmenge Niederschlagsart
Mi, 16.10. 6:20 keine Meldung -
Mi, 16.10. 6:00 0.0 l/m2 in 1 Std. Nebel
Mi, 16.10. 5:50 keine Meldung -
Mi, 16.10. 5:21 keine Meldung -
Mi, 16.10. 5:00 0.0 l/m2 in 1 Std. -
Mi, 16.10. 4:50 keine Meldung -
Mi, 16.10. 4:20 keine Meldung -
Mi, 16.10. 4:00 0.0 l/m2 in 1 Std. -
Mi, 16.10. 3:20 keine Meldung -
Mi, 16.10. 3:00 0.0 l/m2 in 1 Std. -
Ortszeit Stärke Spitze Richtung
km/h Bft. km/h Grad Sektor
Mi, 16.10. 2:00 14 3 - 310° NW
Di, 15.10. 20:00 7 2 - 220° SW
Di, 15.10. 14:00 7 2 - 230° SW
Di, 15.10. 8:00 0 0 - - -
Di, 15.10. 2:00 0 0 - - -
Mo, 14.10. 20:00 4 1 - 330° NW
Mo, 14.10. 14:00 18 3 25 320° NW
Mo, 14.10. 8:00 7 2 - 320° NW
Ortszeit Stärke Spitze Richtung
km/h Bft. km/h Grad Sektor
Mi, 16.10. 6:20 11 2 - 340° N
Mi, 16.10. 6:00 7 2 18 320° NW
Mi, 16.10. 5:50 7 2 - 320° NW
Mi, 16.10. 5:21 9 2 - 320° NW
Mi, 16.10. 5:00 11 2 18 320° NW
Mi, 16.10. 4:50 15 3 - 320° NW
Mi, 16.10. 4:20 13 3 - 320° NW
Mi, 16.10. 4:00 11 2 14 310° NW
Mi, 16.10. 3:20 11 2 - 300° NW
Mi, 16.10. 3:00 11 2 18 310° NW
Ortszeit Untergrenze Bedeckung Gattung
total tief tief mittel hoch
Mi, 16.10. 2:00 90 m 8/8 - - - -
Di, 15.10. 20:00 120 m 8/8 8/8 - - -
Di, 15.10. 14:00 300 m 1/8 1/8 Sc - -
Di, 15.10. 8:00 - 0/8 0/8 - - -
Di, 15.10. 2:00 - 0/8 0/8 - - -
Mo, 14.10. 20:00 - 0/8 0/8 - - -
Mo, 14.10. 14:00 1500 m 1/8 1/8 Sc - -
Mo, 14.10. 8:00 450 m 5/8 5/8 Sc - -
Ortszeit Bedeckungsgrad in Achtel und Wolkenuntergrenze
Mi, 16.10. 6:20 5-7(60m)
Mi, 16.10. 6:00 7(60m)
Mi, 16.10. 5:50 5-7(90m)
Mi, 16.10. 5:21 8(60m)
Mi, 16.10. 5:00 8(60m)
Mi, 16.10. 4:50 -
Mi, 16.10. 4:20 8(60m)
Mi, 16.10. 4:00 8(60m)
Mi, 16.10. 3:20 8(60m)
Mi, 16.10. 3:00 7(30m) 8(120m)
Ortszeit Luftdruck NN (hPa) Tendenz (hPa in 3 Std.)
Mi, 16.10. 2:00 1019 + 0,3
Di, 15.10. 20:00 1018 - 0,2
Di, 15.10. 14:00 1019 + 0,3
Di, 15.10. 8:00 1018 + 0,7
Di, 15.10. 2:00 1016 + 1,1
Mo, 14.10. 20:00 1013 + 1,9
Mo, 14.10. 14:00 1010 + 0,5
Mo, 14.10. 8:00 1009 + 0,4
Ortszeit Luftdruck NN (hPa) Tendenz (hPa in 3 Std.)
Mi, 16.10. 6:20 1018 keine Meldung
Mi, 16.10. 6:00 1019 + 0,2
Mi, 16.10. 5:50 1019 keine Meldung
Mi, 16.10. 5:21 1019 keine Meldung
Mi, 16.10. 5:00 1019 + 0,2
Mi, 16.10. 4:50 1018 keine Meldung
Mi, 16.10. 4:20 1018 keine Meldung
Mi, 16.10. 4:00 1019 + 0,3
Mi, 16.10. 3:20 1018 keine Meldung
Mi, 16.10. 3:00 1019 + 0,1
Ortszeit Schneehöhe (cm)
Mi, 16.10. 2:00 -
Di, 15.10. 20:00 -
Di, 15.10. 14:00 -
Di, 15.10. 8:00 0
Di, 15.10. 2:00 -
Mo, 14.10. 20:00 -
Mo, 14.10. 14:00 -
Mo, 14.10. 8:00 0
Ortszeit Schneehöhe (cm)
Mi, 16.10. 6:20 -
Mi, 16.10. 6:00 -
Mi, 16.10. 5:50 -
Mi, 16.10. 5:21 -
Mi, 16.10. 5:00 -
Mi, 16.10. 4:50 -
Mi, 16.10. 4:20 -
Mi, 16.10. 4:00 -
Mi, 16.10. 3:20 -
Mi, 16.10. 3:00 -
Link zu dieser Seite / Seite empfehlen

Das Wetter in ...